Time;durP1;ratioP1;P1;durP2;ratioP2;P2;SDS_P1;SDS_P2;PMS_P1;PMS_P2;Temp;Humidity;BMP_temperature;BMP_pressure;BME280_temperature;BME280_humidity;BME280_pressure;Samples;Min_cycle;Max_cycle;Signal;HPM_P1;HPM_P2
2022/04/03 00:00:42;;;;;;;15.37;8.53;;;;;;;7.86;75.41;99035.29;123862;1105;104347;-78
2022/04/03 00:03:14;;;;;;;15.57;8.53;;;;;;;7.81;75.47;99029.09;122924;1105;104421;-77
2022/04/03 00:05:46;;;;;;;15.90;7.80;;;;;;;7.80;75.59;99032.53;123263;1105;104411;-78
2022/04/03 00:08:17;;;;;;;16.33;8.23;;;;;;;7.75;75.63;99037.65;123510;1105;104312;-78
2022/04/03 00:10:48;;;;;;;18.33;8.67;;;;;;;7.68;75.06;99035.72;123680;1105;104383;-78
2022/04/03 00:13:31;;;;;;;15.90;8.30;;;;;;;7.63;74.96;99043.45;123930;1105;104355;-77
2022/04/03 00:16:02;;;;;;;15.20;8.35;;;;;;;7.59;75.44;99038.12;123000;1105;104374;-78
2022/04/03 00:18:34;;;;;;;14.95;7.95;;;;;;;7.59;75.61;99039.02;123332;1105;104318;-79
2022/04/03 00:21:05;;;;;;;15.10;8.73;;;;;;;7.58;75.67;99046.81;123548;1102;104251;-77
2022/04/03 00:23:37;;;;;;;15.23;8.60;;;;;;;7.58;75.15;99049.42;123809;1102;104226;-78
2022/04/03 00:26:46;;;;;;;15.17;8.57;;;;;;;7.56;75.47;99052.00;123397;1102;104300;-79
2022/04/03 00:29:17;;;;;;;15.70;8.67;;;;;;;7.53;76.00;99052.79;124155;1102;104300;-79
2022/04/03 00:31:47;;;;;;;13.47;8.00;;;;;;;7.49;75.38;99045.72;123474;1102;104302;-78
2022/04/03 00:34:17;;;;;;;16.53;8.70;;;;;;;7.46;75.02;99057.82;123805;1102;104303;-78
2022/04/03 00:37:02;;;;;;;16.30;9.10;;;;;;;7.43;75.42;99063.83;123397;1102;104460;-79
2022/04/03 00:39:31;;;;;;;;;;;;;;;7.39;75.03;99056.80;124253;1102;104271;-78
2022/04/03 00:42:01;;;;;;;14.57;7.90;;;;;;;7.36;75.31;99054.11;123359;1102;104229;-79
2022/04/03 00:44:46;;;;;;;15.93;8.57;;;;;;;7.34;75.33;99050.59;123632;1102;104315;-79
2022/04/03 00:47:20;;;;;;;16.47;8.60;;;;;;;7.31;75.63;99042.68;123244;1102;104291;-79
2022/04/03 00:49:50;;;;;;;;;;;;;;;7.28;75.14;99038.25;124019;1102;104181;-78
2022/04/03 00:52:21;;;;;;;16.47;9.10;;;;;;;7.23;75.28;99037.27;123941;1105;104373;-79
2022/04/03 00:55:06;;;;;;;14.83;8.13;;;;;;;7.20;75.19;99043.28;123402;1102;104300;-78
2022/04/03 00:57:38;;;;;;;14.60;8.03;;;;;;;7.20;75.45;99037.19;123168;1102;104306;-79
2022/04/03 01:00:13;;;;;;;15.60;8.50;;;;;;;7.19;75.36;99033.67;123251;1102;104376;-79
2022/04/03 01:02:45;;;;;;;15.13;8.50;;;;;;;7.17;74.99;99043.20;123222;1102;104782;-78
2022/04/03 01:05:17;;;;;;;14.67;8.13;;;;;;;7.13;74.83;99040.47;124536;1102;104252;-77
2022/04/03 01:08:04;;;;;;;14.90;8.73;;;;;;;7.11;75.16;99023.91;123456;1102;104302;-78
2022/04/03 01:10:35;;;;;;;15.55;8.65;;;;;;;7.08;74.98;99019.48;123376;1102;104910;-79
2022/04/03 01:13:06;;;;;;;15.37;8.63;;;;;;;7.07;75.38;99025.52;123444;1102;104268;-79
2022/04/03 01:15:35;;;;;;;14.90;8.33;;;;;;;7.01;75.32;99021.05;123334;1102;104446;-79
2022/04/03 01:21:02;;;;;;;16.47;8.67;;;;;;;6.93;75.08;99013.86;123251;1102;104309;-78
2022/04/03 01:23:32;;;;;;;15.43;9.10;;;;;;;6.89;75.04;99012.91;123759;1102;104290;-78
2022/04/03 01:26:02;;;;;;;15.53;8.40;;;;;;;6.86;75.22;99024.95;123343;1102;104372;-79
2022/04/03 01:28:33;;;;;;;15.37;8.63;;;;;;;6.83;75.07;99024.05;123170;1102;104540;-78
2022/04/03 01:31:04;;;;;;;16.10;8.80;;;;;;;6.82;75.02;99035.33;124109;1103;104335;-78
2022/04/03 01:33:47;;;;;;;15.37;8.83;;;;;;;6.81;75.52;99046.59;123564;1102;104363;-78
2022/04/03 01:36:18;;;;;;;15.13;8.47;;;;;;;6.79;75.52;99042.17;123440;1102;104310;-78
2022/04/03 01:38:48;;;;;;;16.77;8.40;;;;;;;6.81;75.44;99043.98;123491;1102;104359;-78
2022/04/03 01:41:18;;;;;;;15.33;8.57;;;;;;;6.80;75.24;99037.00;123479;1102;104733;-79
2022/04/03 01:43:49;;;;;;;16.17;9.07;;;;;;;6.81;74.82;99038.77;122974;1102;104300;-79
2022/04/03 01:46:19;;;;;;;14.60;8.20;;;;;;;6.82;75.17;99035.33;123405;1102;104708;-79
2022/04/03 01:48:49;;;;;;;17.53;9.70;;;;;;;6.78;74.99;99030.87;123612;1102;104402;-79
2022/04/03 01:51:20;;;;;;;15.07;8.20;;;;;;;6.76;75.29;99034.27;123865;1102;104255;-77
2022/04/03 01:53:51;;;;;;;15.13;8.60;;;;;;;6.74;74.93;99036.83;123330;1102;105386;-79
2022/04/03 01:56:22;;;;;;;15.17;8.50;;;;;;;6.72;74.83;99041.13;123268;1102;104376;-78
2022/04/03 01:58:52;;;;;;;14.73;8.27;;;;;;;6.73;75.14;99029.87;123567;1102;104245;-78
2022/04/03 02:01:28;;;;;;;13.93;8.47;;;;;;;6.64;75.09;99025.27;123834;1102;104498;-78
2022/04/03 02:04:00;;;;;;;15.90;8.47;;;;;;;6.66;75.10;99040.95;123399;1103;104360;-78
2022/04/03 02:06:30;;;;;;;15.93;9.17;;;;;;;6.63;75.02;99039.13;123514;1102;104313;-78
2022/04/03 02:09:04;;;;;;;16.50;9.13;;;;;;;6.62;75.47;99047.81;123861;1105;104261;-78
2022/04/03 02:11:36;;;;;;;16.27;8.60;;;;;;;6.58;74.98;99040.73;123756;1102;104249;-79
2022/04/03 02:14:12;;;;;;;15.85;8.80;;;;;;;6.56;74.92;99052.85;123717;1102;104389;-77
2022/04/03 02:16:42;;;;;;;15.75;8.95;;;;;;;6.57;74.99;99058.94;123280;1103;104338;-78
2022/04/03 02:19:14;;;;;;;14.63;8.70;;;;;;;6.58;75.17;99063.32;123169;1102;104303;-78
2022/04/03 02:21:45;;;;;;;16.00;8.97;;;;;;;6.57;75.08;99054.59;123456;1102;104248;-79
2022/04/03 02:24:15;;;;;;;17.97;9.47;;;;;;;6.59;75.06;99052.03;123206;1102;104382;-78
2022/04/03 02:26:44;;;;;;;18.43;9.47;;;;;;;6.59;75.07;99065.97;123770;1102;104382;-78
2022/04/03 02:29:16;;;;;;;16.43;8.90;;;;;;;6.59;75.29;99065.06;124196;1102;104418;-78
2022/04/03 02:31:45;;;;;;;17.40;9.53;;;;;;;6.59;75.00;99065.06;123477;1102;104313;-79
2022/04/03 02:34:14;;;;;;;15.30;8.90;;;;;;;6.54;74.89;99058.85;123813;1102;104380;-78
2022/04/03 02:36:46;;;;;;;16.20;9.17;;;;;;;6.52;75.48;99055.33;123389;1102;104257;-78
2022/04/03 02:39:16;;;;;;;17.57;9.47;;;;;;;6.51;75.33;99061.37;123696;1102;104257;-78
2022/04/03 02:41:47;;;;;;;16.60;9.77;;;;;;;6.48;75.46;99060.45;123584;1102;104320;-78
2022/04/03 02:44:16;;;;;;;17.60;9.23;;;;;;;6.50;75.31;99050.07;123467;1102;104357;-78
2022/04/03 02:46:47;;;;;;;17.57;9.87;;;;;;;6.52;75.22;99057.93;123322;1102;104727;-78
2022/04/03 02:49:18;;;;;;;18.30;10.03;;;;;;;6.55;75.15;99058.02;123157;1102;104274;-77
2022/04/03 02:51:48;;;;;;;18.20;10.40;;;;;;;6.56;75.10;99051.95;123101;1102;104285;-78
2022/04/03 02:54:19;;;;;;;20.10;10.30;;;;;;;6.57;75.20;99051.12;123211;1102;104316;-79
2022/04/03 02:56:49;;;;;;;18.07;9.83;;;;;;;6.57;75.38;99045.91;123374;1102;108602;-78
2022/04/03 02:59:20;;;;;;;15.83;9.13;;;;;;;6.57;75.05;99048.52;123237;1102;104657;-79
2022/04/03 03:01:50;;;;;;;17.43;9.70;;;;;;;6.58;75.35;99042.47;122866;1106;104386;-79
2022/04/03 03:04:20;;;;;;;17.83;10.20;;;;;;;6.55;75.34;99045.86;123359;1102;104262;-78
2022/04/03 03:06:51;;;;;;;17.70;10.30;;;;;;;6.53;75.38;99050.16;122882;1105;104300;-78
2022/04/03 03:09:21;;;;;;;18.07;9.93;;;;;;;6.48;75.30;99050.02;123328;1102;104358;-78
2022/04/03 03:11:52;;;;;;;19.70;10.53;;;;;;;6.45;75.54;99055.15;123397;1102;105831;-78
2022/04/03 03:14:23;;;;;;;17.83;10.17;;;;;;;6.43;75.27;99062.02;123188;1102;104252;-78
2022/04/03 03:16:54;;;;;;;18.83;10.70;;;;;;;6.42;75.30;99069.79;123712;1102;104268;-78
2022/04/03 03:19:25;;;;;;;18.30;10.47;;;;;;;6.38;75.42;99074.03;123398;1102;104339;-78
2022/04/03 03:22:02;;;;;;;20.37;10.93;;;;;;;6.36;75.23;99074.81;124032;1102;104351;-78
2022/04/03 03:24:33;;;;;;;19.37;11.00;;;;;;;6.31;75.57;99077.31;123791;1101;104377;-78
2022/04/03 03:27:04;;;;;;;18.95;10.95;;;;;;;6.34;75.90;99086.92;123489;1102;104303;-77
2022/04/03 03:29:36;;;;;;;21.03;10.90;;;;;;;6.32;75.17;99084.27;123978;1102;104245;-78
2022/04/03 03:32:09;;;;;;;21.10;11.30;;;;;;;6.26;75.79;99085.00;123795;1102;104364;-78
2022/04/03 03:34:39;;;;;;;;;;;;;;;6.21;75.51;99083.95;123348;1102;104540;-77
2022/04/03 03:37:09;;;;;;;19.40;11.07;;;;;;;6.22;75.47;99095.27;123184;1102;104306;-78
2022/04/03 03:39:40;;;;;;;20.93;11.63;;;;;;;6.19;75.30;99090.84;123065;1103;104258;-78
2022/04/03 03:42:09;;;;;;;21.90;11.83;;;;;;;6.20;75.49;99095.23;123066;1102;104360;-78
2022/04/03 03:44:41;;;;;;;20.83;11.67;;;;;;;6.17;75.63;99096.83;123690;1102;104329;-78
2022/04/03 03:47:13;;;;;;;20.37;11.43;;;;;;;6.12;75.82;99099.29;123418;1102;104348;-79
2022/04/03 03:49:43;;;;;;;20.63;11.13;;;;;;;6.10;75.80;99103.58;123381;1102;104392;-79
2022/04/03 03:52:13;;;;;;;21.27;12.27;;;;;;;6.09;75.56;99101.80;123497;1102;104283;-77
2022/04/03 05:13:44;;;;;;;24.17;13.30;;;;;;;5.74;77.13;99140.59;123373;1102;104367;-79
2022/04/03 05:16:15;;;;;;;24.23;12.60;;;;;;;5.70;77.26;99131.80;123354;1102;104482;-78
2022/04/03 05:18:45;;;;;;;25.40;13.83;;;;;;;5.75;77.49;99132.83;123337;1102;104380;-79
2022/04/03 05:22:02;;;;;;;23.23;12.70;;;;;;;5.78;77.79;99146.77;123710;1102;104223;-79
2022/04/03 05:24:33;;;;;;;21.17;12.07;;;;;;;5.71;77.03;99138.75;123458;1103;104392;-79
2022/04/03 05:27:05;;;;;;;22.53;12.37;;;;;;;5.70;77.09;99134.41;123043;1105;104437;-78
2022/04/03 05:29:36;;;;;;;23.10;12.77;;;;;;;5.68;77.01;99141.25;122987;1105;104441;-80
2022/04/03 05:32:10;;;;;;;23.00;12.83;;;;;;;5.68;76.94;99136.05;123102;1105;104264;-78
2022/04/03 05:34:40;;;;;;;21.63;12.57;;;;;;;5.68;77.15;99142.98;123031;1105;104438;-79
2022/04/03 05:37:09;;;;;;;25.50;13.40;;;;;;;5.67;77.40;99143.81;123076;1104;104357;-79
2022/04/03 05:39:38;;;;;;;25.00;13.60;;;;;;;5.66;77.08;99145.53;123085;1105;104434;-79
2022/04/03 05:42:14;;;;;;;23.80;14.13;;;;;;;5.66;77.44;99142.94;123550;1105;104365;-78
2022/04/03 05:44:52;;;;;;;25.63;12.83;;;;;;;5.63;77.45;99148.03;123252;1105;104463;-79
2022/04/03 05:50:30;;;;;;;22.03;12.13;;;;;;;5.48;76.87;99153.59;123653;1106;104258;-78
2022/04/03 05:53:00;;;;;;;22.03;11.80;;;;;;;5.46;77.44;99165.67;123439;1107;104252;-79
2022/04/03 05:55:31;;;;;;;21.87;11.87;;;;;;;5.44;77.70;99162.14;122834;1105;104496;-79
2022/04/03 05:58:14;;;;;;;20.47;11.23;;;;;;;5.42;77.23;99160.30;123439;1105;104495;-78
2022/04/03 06:00:49;;;;;;;21.97;11.70;;;;;;;5.38;77.26;99164.53;123581;1106;104349;-78
2022/04/03 06:03:23;;;;;;;21.63;11.90;;;;;;;5.33;77.59;99171.27;124031;1105;104364;-78
2022/04/03 06:06:02;;;;;;;22.97;12.17;;;;;;;5.32;77.17;99177.31;123300;1105;104290;-78
2022/04/03 06:08:31;;;;;;;21.30;12.03;;;;;;;5.34;77.57;99171.31;123026;1105;105075;-78
2022/04/03 06:11:01;;;;;;;22.50;12.17;;;;;;;5.36;77.55;99177.48;123075;1105;104364;-79
2022/04/03 06:13:33;;;;;;;22.40;11.53;;;;;;;5.38;77.35;99175.80;123559;1105;104420;-78
2022/04/03 06:16:07;;;;;;;20.95;11.85;;;;;;;5.41;77.75;99167.23;123701;1105;104371;-78
2022/04/03 06:18:38;;;;;;;;;;;;;;;5.42;78.00;99168.98;123015;1105;104830;-78
2022/04/03 06:21:09;;;;;;;21.73;12.07;;;;;;;5.42;77.46;99173.31;123805;1105;104373;-78
2022/04/03 06:23:39;;;;;;;22.85;11.95;;;;;;;5.40;77.32;99176.73;123893;1105;104364;-80
2022/04/03 06:26:14;;;;;;;23.00;12.10;;;;;;;5.43;77.33;99175.97;123544;1105;104431;-79
2022/04/03 06:28:43;;;;;;;21.23;11.70;;;;;;;5.43;77.54;99188.10;123582;1105;104258;-79
2022/04/03 06:31:15;;;;;;;;;;;;;;;5.39;77.75;99174.98;124589;1105;104172;-77
2022/04/03 06:33:55;;;;;;;22.87;10.43;;;;;;;5.39;77.91;99180.19;123556;1103;104533;-79
2022/04/03 06:36:58;;;;;;;20.87;11.17;;;;;;;5.38;77.64;99188.81;123326;1105;104370;-78
2022/04/03 06:39:37;;;;;;;22.53;11.50;;;;;;;5.38;77.62;99187.94;124459;1105;104172;-79
2022/04/03 06:45:48;;;;;;;20.13;11.17;;;;;;;5.28;77.90;99193.63;124704;1104;102139;-78
2022/04/03 06:48:19;;;;;;;20.37;11.23;;;;;;;5.28;77.72;99194.51;124334;1105;104422;-78
2022/04/03 06:50:48;;;;;;;20.20;11.05;;;;;;;5.31;77.40;99189.41;123870;1105;104425;-79
2022/04/03 06:53:16;;;;;;;21.27;11.40;;;;;;;5.36;77.02;99190.48;123190;1105;104206;-79
2022/04/03 06:55:45;;;;;;;21.03;11.57;;;;;;;5.40;77.72;99192.34;124042;1105;104355;-78
2022/04/03 06:58:20;;;;;;;22.77;11.43;;;;;;;5.40;77.65;99199.27;124697;1105;104300;-77
2022/04/03 07:01:31;;;;;;;19.97;10.87;;;;;;;5.38;77.66;99208.75;124333;1105;104536;-78
2022/04/03 07:04:02;;;;;;;20.17;11.10;;;;;;;5.34;77.33;99202.53;124902;1102;104381;-77
2022/04/03 07:06:33;;;;;;;20.47;10.63;;;;;;;5.33;77.58;99205.08;123470;1102;104718;-79
2022/04/03 07:09:37;;;;;;;18.93;10.17;;;;;;;5.37;77.08;99206.97;123738;1102;104400;-79
2022/04/03 07:12:07;;;;;;;19.47;10.73;;;;;;;5.37;76.90;99206.97;124105;1102;104424;-78
2022/04/03 07:14:37;;;;;;;19.93;10.83;;;;;;;5.36;77.49;99208.70;123983;1102;104302;-78
2022/04/03 07:17:20;;;;;;;19.50;10.37;;;;;;;5.37;77.54;99207.84;124030;1102;104261;-76
2022/04/03 07:20:30;;;;;;;18.17;10.20;;;;;;;5.35;77.24;99208.64;123646;1102;104290;-78
2022/04/03 07:23:17;;;;;;;19.07;10.10;;;;;;;5.33;77.84;99211.19;123341;1105;104255;-79
2022/04/03 07:25:58;;;;;;;17.50;9.27;;;;;;;5.32;76.81;99217.20;123541;1106;104331;-78
2022/04/03 07:28:42;;;;;;;19.63;9.33;;;;;;;5.24;77.60;99221.26;123666;1105;104559;-78
2022/04/03 07:34:19;;;;;;;18.95;10.10;;;;;;;5.20;77.96;99214.16;123875;1105;104222;-79
2022/04/03 07:36:50;;;;;;;19.27;9.83;;;;;;;5.28;78.03;99211.84;123714;1105;104313;-77
2022/04/03 07:39:19;;;;;;;18.53;9.53;;;;;;;5.42;77.39;99212.34;123966;1105;104507;-79
2022/04/03 07:41:54;;;;;;;15.90;9.23;;;;;;;5.61;77.79;99225.18;123228;1105;104456;-78
2022/04/03 07:44:22;;;;;;;18.23;9.80;;;;;;;5.76;77.24;99228.31;124006;1105;104252;-79
2022/04/03 07:46:54;;;;;;;18.33;9.80;;;;;;;5.84;77.52;99227.67;123169;1105;104548;-78
2022/04/03 07:49:25;;;;;;;17.80;9.27;;;;;;;5.88;77.44;99227.83;123137;1109;104393;-79
2022/04/03 07:51:54;;;;;;;18.87;10.37;;;;;;;5.91;77.17;99224.45;122962;1105;104519;-79
2022/04/03 07:54:23;;;;;;;17.37;9.10;;;;;;;5.99;77.25;99229.95;124096;1106;104393;-78
2022/04/03 07:56:59;;;;;;;17.23;9.00;;;;;;;6.04;77.35;99229.26;124343;1105;104505;-77
2022/04/03 07:59:29;;;;;;;17.40;8.97;;;;;;;6.08;77.02;99225.06;123904;1105;104364;-77
2022/04/03 08:06:11;;;;;;;16.97;9.20;;;;;;;6.01;76.44;99242.17;122859;1109;104393;-77
2022/04/03 08:08:44;;;;;;;17.27;9.77;;;;;;;6.03;76.64;99243.13;122842;1109;104495;-78
2022/04/03 08:11:19;;;;;;;19.17;10.28;;;;;;;5.99;76.67;99249.06;122656;1106;104367;-80
2022/04/03 08:13:51;;;;;;;17.07;9.10;;;;;;;5.95;76.49;99252.34;123322;1108;104408;-79
2022/04/03 08:25:01;;;;;;;18.90;10.15;;;;;;;5.75;76.73;99262.98;123612;1109;104502;-76
2022/04/03 08:43:33;;;;;;;17.70;9.60;;;;;;;5.54;76.25;99290.84;122312;1114;104446;-77
2022/04/03 09:07:59;;;;;;;20.30;10.20;;;;;;;5.52;76.46;99308.99;123027;1105;104446;-78
2022/04/03 09:10:38;;;;;;;20.53;10.47;;;;;;;5.59;76.67;99302.29;123021;1105;104345;-77
2022/04/03 09:13:28;;;;;;;19.77;9.83;;;;;;;5.60;76.74;99311.00;123864;1105;104260;-79
2022/04/03 09:16:40;;;;;;;20.90;10.03;;;;;;;5.54;76.58;99314.25;123321;1105;104210;-78
2022/04/03 09:19:40;;;;;;;20.37;10.87;;;;;;;5.48;76.61;99320.11;124359;1106;104129;-78
2022/04/03 09:25:36;;;;;;;18.70;10.27;;;;;;;5.47;76.85;99315.75;124138;1109;104194;-78
2022/04/03 09:28:11;;;;;;;21.57;11.23;;;;;;;5.47;76.52;99314.84;123321;1109;119081;-78
2022/04/03 09:31:25;;;;;;;19.30;10.87;;;;;;;5.45;76.66;99329.52;123734;1109;104267;-79
2022/04/03 09:34:56;;;;;;;19.10;10.50;;;;;;;5.48;76.60;99327.91;124519;1109;103034;-77
2022/04/03 09:41:32;;;;;;;21.85;11.60;;;;;;;5.50;76.14;99327.97;124875;1102;104165;-78
2022/04/03 09:44:25;;;;;;;19.90;10.40;;;;;;;5.64;76.56;99324.19;123471;1103;104306;-78
2022/04/03 09:47:36;;;;;;;19.40;10.07;;;;;;;5.76;76.79;99324.63;124529;1104;104335;-78
2022/04/03 09:50:14;;;;;;;21.00;10.78;;;;;;;5.69;76.30;99325.23;124915;1102;104248;-77
2022/04/03 09:52:55;;;;;;;19.87;10.13;;;;;;;5.74;76.16;99338.41;125591;1103;104332;-77
2022/04/03 09:55:45;;;;;;;20.17;10.80;;;;;;;5.71;76.16;99338.30;125059;1102;104316;-78
2022/04/03 09:58:29;;;;;;;20.33;10.23;;;;;;;5.66;75.74;99335.52;124450;1102;104329;-78
2022/04/03 10:01:02;;;;;;;21.40;11.18;;;;;;;5.69;76.01;99340.84;124945;1105;104418;-78
2022/04/03 10:03:35;;;;;;;;;;;;;;;5.68;75.50;99344.27;125015;1106;104328;-78
2022/04/03 10:06:17;;;;;;;19.95;11.40;;;;;;;5.70;76.32;99344.32;123577;1105;104399;-79
2022/04/03 10:08:52;;;;;;;21.63;11.30;;;;;;;5.76;76.29;99355.87;123354;1105;104284;-78
2022/04/03 10:11:30;;;;;;;22.37;11.83;;;;;;;5.81;76.02;99355.13;123713;1105;104360;-77
2022/04/03 10:14:15;;;;;;;22.77;12.27;;;;;;;5.85;76.01;99355.30;124255;1105;104268;-77
2022/04/03 10:16:48;;;;;;;22.57;12.17;;;;;;;5.99;75.66;99350.62;123710;1105;104332;-79
2022/04/03 10:19:21;;;;;;;21.20;12.43;;;;;;;6.07;75.74;99346.55;123303;1105;104395;-78
2022/04/03 10:21:57;;;;;;;19.20;10.80;;;;;;;6.18;75.67;99339.12;123286;1105;104316;-78
2022/04/03 10:24:36;;;;;;;19.23;10.10;;;;;;;6.16;75.08;99355.55;124581;1105;104476;-78
2022/04/03 10:27:16;;;;;;;18.60;9.47;;;;;;;6.16;75.35;99358.16;124909;1105;104201;-77
2022/04/03 10:30:03;;;;;;;21.30;10.77;;;;;;;6.12;74.67;99351.92;123455;1105;104895;-77
2022/04/03 10:33:02;;;;;;;21.67;10.67;;;;;;;6.18;75.04;99359.95;123789;1102;104361;-79
2022/04/03 10:35:37;;;;;;;21.93;11.03;;;;;;;6.21;75.00;99362.67;123799;1105;104629;-79
2022/04/03 10:38:39;;;;;;;18.40;9.57;;;;;;;6.15;74.48;99362.45;124495;1102;104270;-78
2022/04/03 10:41:36;;;;;;;16.67;9.53;;;;;;;6.06;74.52;99368.25;124810;1102;104182;-78
2022/04/03 10:44:33;;;;;;;19.17;9.45;;;;;;;6.03;74.11;99370.74;124982;1102;118314;-78
2022/04/03 10:47:39;;;;;;;15.83;8.67;;;;;;;6.13;74.50;99387.58;123993;1105;104287;-78
2022/04/03 10:50:28;;;;;;;15.10;8.23;;;;;;;6.26;74.63;99370.64;125377;1106;104348;-79
2022/04/03 10:53:01;;;;;;;15.17;8.20;;;;;;;6.40;74.61;99374.61;124732;1105;104700;-77
2022/04/03 10:55:43;;;;;;;14.77;7.80;;;;;;;6.47;73.88;99371.39;123792;1105;104351;-77
2022/04/03 10:58:38;;;;;;;14.07;7.93;;;;;;;6.53;73.62;99383.75;125017;1105;102303;-77
2022/04/03 11:01:28;;;;;;;15.00;7.67;;;;;;;6.58;73.71;99376.09;123623;1105;105143;-79
2022/04/03 11:04:16;;;;;;;14.03;7.80;;;;;;;6.64;73.09;99378.91;123946;1105;104269;-78
2022/04/03 11:06:51;;;;;;;13.05;7.05;;;;;;;6.70;73.03;99381.72;123289;1105;104552;-78
2022/04/03 11:09:42;;;;;;;16.07;8.40;;;;;;;6.74;73.15;99386.17;124681;1105;104335;-77
2022/04/03 11:12:56;;;;;;;11.20;7.10;;;;;;;6.75;73.05;99387.08;124647;1106;104408;-78
2022/04/03 11:15:44;;;;;;;16.13;8.53;;;;;;;6.85;72.93;99378.70;123438;1105;104422;-79
2022/04/03 11:19:22;;;;;;;15.63;7.67;;;;;;;7.02;73.12;99379.25;122904;1105;104381;-78
2022/04/03 11:21:59;;;;;;;13.93;7.70;;;;;;;7.30;72.11;99378.39;123374;1105;104319;-78
2022/04/03 11:24:45;;;;;;;13.13;7.57;;;;;;;7.43;72.67;99384.86;124024;1105;104299;-77
2022/04/03 11:27:19;;;;;;;13.73;7.27;;;;;;;7.44;72.63;99380.55;123626;1105;104409;-77
2022/04/03 11:29:56;;;;;;;12.40;7.00;;;;;;;7.51;72.80;99383.39;123073;1102;104245;-78
2022/04/03 11:32:35;;;;;;;10.50;6.80;;;;;;;7.52;72.87;99379.05;123930;1102;104334;-78
2022/04/03 11:35:13;;;;;;;13.87;7.37;;;;;;;7.53;72.68;99373.87;123168;1102;104293;-79
2022/04/03 11:37:54;;;;;;;13.13;7.03;;;;;;;7.52;72.41;99382.53;123043;1102;104217;-77
2022/04/03 11:40:33;;;;;;;13.37;7.10;;;;;;;7.48;72.30;99387.61;123207;1102;104329;-77
2022/04/03 11:43:25;;;;;;;12.17;6.93;;;;;;;7.46;72.91;99389.30;123169;1102;104236;-77
2022/04/03 11:46:05;;;;;;;10.70;6.30;;;;;;;7.36;71.54;99393.36;123597;1105;104357;-78
2022/04/03 11:48:51;;;;;;;11.77;6.40;;;;;;;7.24;72.24;99391.24;123009;1102;104380;-77
2022/04/03 11:51:28;;;;;;;11.90;6.70;;;;;;;7.17;72.09;99398.00;123715;1102;104329;-77
2022/04/03 11:54:05;;;;;;;13.20;6.80;;;;;;;7.22;72.54;99403.37;123213;1102;104248;-78
2022/04/03 11:56:41;;;;;;;14.67;7.10;;;;;;;7.26;72.47;99402.64;122838;1102;104335;-79
2022/04/03 11:59:25;;;;;;;10.90;6.20;;;;;;;7.31;72.40;99408.88;123122;1102;104357;-78
2022/04/03 12:02:26;;;;;;;9.40;5.43;;;;;;;7.27;72.67;99403.52;124282;1102;104166;-77
2022/04/03 12:05:09;;;;;;;7.50;4.70;;;;;;;7.15;71.55;99410.12;124482;1105;104352;-77
2022/04/03 12:08:01;;;;;;;9.87;5.07;;;;;;;7.05;71.14;99413.27;125012;1102;104309;-78
2022/04/03 12:36:40;;;;;;;7.20;4.53;;;;;;;8.23;69.40;99412.42;124055;1102;104176;-77
2022/04/03 12:39:48;;;;;;;9.10;5.10;;;;;;;8.07;69.10;99417.22;124092;1105;104555;-77
2022/04/03 12:42:27;;;;;;;9.27;5.07;;;;;;;7.92;69.37;99411.55;123446;1109;102929;-77
2022/04/03 12:45:05;;;;;;;8.60;5.10;;;;;;;7.78;68.72;99412.89;123910;1109;104309;-77
2022/04/03 12:47:40;;;;;;;10.13;5.20;;;;;;;7.68;69.16;99424.77;122937;1109;107027;-78
2022/04/03 12:50:24;;;;;;;9.97;5.47;;;;;;;7.54;68.38;99427.86;124047;1109;104352;-78
2022/04/03 12:53:21;;;;;;;8.85;5.03;;;;;;;7.46;67.34;99431.94;123716;1109;104257;-76
2022/04/03 12:55:56;;;;;;;8.70;5.30;;;;;;;7.62;68.92;99417.66;123675;1109;104181;-78
2022/04/03 12:58:58;;;;;;;11.47;5.30;;;;;;;7.77;67.93;99419.81;123608;1109;104501;-78
2022/04/03 13:01:32;;;;;;;8.80;5.17;;;;;;;7.84;68.47;99424.39;123316;1109;104357;-79
2022/04/03 13:04:32;;;;;;;9.30;5.63;;;;;;;7.85;67.75;99420.95;123460;1108;104440;-78
2022/04/03 13:07:28;;;;;;;10.67;5.53;;;;;;;7.76;66.56;99427.60;123452;1109;104377;-77
2022/04/03 13:10:09;;;;;;;10.40;5.90;;;;;;;7.58;67.02;99433.17;123915;1109;104179;-78
2022/04/03 13:16:23;;;;;;;10.57;6.30;;;;;;;7.36;66.36;99442.95;123546;1102;104351;-78
2022/04/03 13:18:56;;;;;;;10.40;6.20;;;;;;;7.38;66.90;99443.88;123169;1105;104661;-79
2022/04/03 13:21:34;;;;;;;12.77;6.60;;;;;;;7.41;67.02;99448.31;123808;1102;104169;-77
2022/04/03 13:24:15;;;;;;;12.13;6.57;;;;;;;7.36;66.44;99451.65;124111;1102;104274;-77
2022/04/03 13:26:48;;;;;;;12.17;6.50;;;;;;;7.29;66.35;99448.80;123639;1102;104424;-77
2022/04/03 13:29:21;;;;;;;13.23;6.33;;;;;;;7.29;66.23;99451.41;123895;1102;104268;-78
2022/04/03 13:31:58;;;;;;;13.03;7.17;;;;;;;7.32;66.31;99449.80;123785;1102;104271;-78
2022/04/03 13:37:44;;;;;;;13.93;8.00;;;;;;;7.32;64.37;99452.41;124308;1102;104252;-77
2022/04/03 13:43:37;;;;;;;13.70;7.03;;;;;;;7.43;65.02;99452.72;124286;1103;104216;-77
2022/04/03 13:46:12;;;;;;;14.20;7.50;;;;;;;7.51;65.60;99451.26;124519;1105;104348;-77
2022/04/03 13:49:25;;;;;;;15.07;7.43;;;;;;;7.56;65.19;99454.89;123460;1105;108980;-77
2022/04/03 13:52:35;;;;;;;14.45;8.25;;;;;;;7.57;64.97;99453.16;124335;1105;104412;-78
2022/04/03 13:58:45;;;;;;;13.28;7.65;;;;;;;7.77;64.65;99452.89;123354;1108;104750;-77
2022/04/03 14:04:56;;;;;;;12.73;7.63;;;;;;;7.76;63.00;99457.23;124013;1109;104316;-77
2022/04/03 14:08:07;;;;;;;;;;;;;;;;;;;;;
2022/04/03 14:13:51;;;;;;;15.70;7.60;;;;;;;7.56;63.38;99460.11;122680;1112;104466;-78
2022/04/03 14:16:26;;;;;;;13.90;7.80;;;;;;;7.55;63.16;99467.89;123181;1112;104482;-79
2022/04/03 14:19:20;;;;;;;13.00;7.80;;;;;;;7.58;61.77;99469.72;123100;1112;104425;-77
2022/04/03 14:22:24;;;;;;;12.83;7.20;;;;;;;7.70;62.98;99478.81;122704;1112;104463;-78
2022/04/03 14:25:37;;;;;;;14.13;7.40;;;;;;;7.73;61.94;99470.20;123077;1112;104449;-76
2022/04/03 14:28:19;;;;;;;14.43;7.20;;;;;;;7.61;62.24;99482.87;123508;1112;104453;-77
2022/04/03 14:31:18;;;;;;;11.60;6.63;;;;;;;7.50;62.49;99488.63;123668;1112;104663;-78
2022/04/03 14:33:54;;;;;;;14.27;7.20;;;;;;;7.41;61.42;99492.69;123450;1112;104289;-78
2022/04/03 14:36:51;;;;;;;11.97;6.73;;;;;;;7.37;61.69;99492.58;123123;1109;104396;-78
2022/04/03 14:39:31;;;;;;;11.60;6.30;;;;;;;7.35;61.28;99502.09;123720;1109;104482;-79
2022/04/03 14:45:54;;;;;;;9.43;5.80;;;;;;;7.28;60.18;99509.67;123364;1115;104587;-78
2022/04/03 14:48:43;;;;;;;9.93;6.00;;;;;;;7.26;61.10;99514.84;122645;1112;104462;-77
2022/04/03 14:51:26;;;;;;;8.93;5.67;;;;;;;7.24;60.84;99533.88;123058;1112;104536;-77
2022/04/03 14:54:12;;;;;;;13.93;6.37;;;;;;;7.19;60.94;99537.20;122968;1112;104355;-79
2022/04/03 14:56:44;;;;;;;10.25;5.80;;;;;;;7.18;60.87;99538.06;123023;1112;104501;-77
2022/04/03 14:59:28;;;;;;;10.33;6.27;;;;;;;7.12;60.86;99537.86;123527;1112;104345;-77
2022/04/03 15:02:41;;;;;;;11.63;6.50;;;;;;;7.09;61.43;99547.28;123163;1112;104367;-78
2022/04/03 15:05:16;;;;;;;11.05;6.05;;;;;;;7.09;61.07;99549.89;123061;1112;104316;-77
2022/04/03 15:08:09;;;;;;;10.20;5.90;;;;;;;7.05;61.07;99554.13;123859;1112;104395;-77
2022/04/03 15:10:56;;;;;;;10.10;5.70;;;;;;;7.04;60.38;99561.89;123591;1113;109291;-76
2022/04/03 15:13:38;;;;;;;11.08;5.60;;;;;;;7.02;60.95;99561.84;123365;1115;104300;-78
2022/04/03 15:16:13;;;;;;;12.17;6.13;;;;;;;7.05;61.11;99563.68;122536;1115;104763;-78
2022/04/03 15:19:08;;;;;;;10.40;5.80;;;;;;;7.05;60.96;99574.98;123319;1112;104310;-78
2022/04/03 15:21:53;;;;;;;;;;;;;;;7.08;61.03;99580.31;123261;1112;104699;-78
2022/04/03 15:24:26;;;;;;;7.87;4.62;;;;;;;7.07;60.32;99581.14;123222;1112;104291;-78
2022/04/03 15:26:59;;;;;;;6.97;3.98;;;;;;;7.03;59.85;99574.06;123349;1110;104540;-78
2022/04/03 15:30:02;;;;;;;5.33;3.57;;;;;;;7.01;60.68;99573.09;123317;1111;104469;-77